Craig, Missouri
Current Conditions -  °F | °C
As of 8:53 AM on Thursday 23 Oct 2014 (Local Time) from KFNB Reporting Station
Overcast Overcast  
Wind Chill: 62°   Ceiling: 2700
Heat Index: 62°   Visibility: 10mi
Dew Point: 60°   Wind: 10mph
Humidity: 93%   Direction: 220°SW
Pressure: 30.05"   Gusts: NA
Location:  40.19°N, 95.37°W
Report Text: KFNB 231353Z AUTO 22009KT 10SM OVC027 17/16 A3005 RMK AO2 SLP171 T01670156
Loading
Personal Weather Stations






























Interactive Weather Map
Tropical Storm Tracking
New forecast layout! Learn more

10-Day Weather Forecast

Advertisements
Track Severe Weather on mobile